sensor_id;sensor_type;location;lat;lon;timestamp;pressure;altitude;pressure_sealevel;temperature;humidity
45793;BME280;31495;42.740;22.908;2023-04-21T00:00:07;92763.44;;;6.77;68.38
45793;BME280;31495;42.740;22.908;2023-04-21T00:01:09;92755.16;;;6.75;68.40
45793;BME280;31495;42.740;22.908;2023-04-21T00:02:11;92730.56;;;6.52;68.48
45793;BME280;31495;42.740;22.908;2023-04-21T00:03:13;92754.75;;;6.65;68.87
45793;BME280;31495;42.740;22.908;2023-04-21T00:04:13;92753.91;;;6.57;68.95
45793;BME280;31495;42.740;22.908;2023-04-21T00:05:13;92742.84;;;6.57;69.00
45793;BME280;31495;42.740;22.908;2023-04-21T00:06:12;92741.22;;;6.36;69.19
45793;BME280;31495;42.740;22.908;2023-04-21T00:07:12;92734.31;;;6.30;69.59
45793;BME280;31495;42.740;22.908;2023-04-21T00:08:13;92757.63;;;6.35;70.03
45793;BME280;31495;42.740;22.908;2023-04-21T00:09:13;92755.47;;;6.38;70.08
45793;BME280;31495;42.740;22.908;2023-04-21T00:10:13;92737.44;;;6.25;69.78
45793;BME280;31495;42.740;22.908;2023-04-21T00:11:12;92719.38;;;6.05;69.75
45793;BME280;31495;42.740;22.908;2023-04-21T00:12:13;92713.44;;;5.98;69.36
45793;BME280;31495;42.740;22.908;2023-04-21T00:13:13;92738.19;;;6.12;69.54
45793;BME280;31495;42.740;22.908;2023-04-21T00:14:12;92728.91;;;6.18;69.17
45793;BME280;31495;42.740;22.908;2023-04-21T00:15:12;92744.97;;;6.27;69.87
45793;BME280;31495;42.740;22.908;2023-04-21T00:16:11;92747.75;;;6.32;69.71
45793;BME280;31495;42.740;22.908;2023-04-21T00:17:10;92736.81;;;6.23;69.66
45793;BME280;31495;42.740;22.908;2023-04-21T00:18:10;92753.44;;;6.27;70.03
45793;BME280;31495;42.740;22.908;2023-04-21T00:19:11;92740.00;;;6.18;70.20
45793;BME280;31495;42.740;22.908;2023-04-21T00:20:12;92745.69;;;6.14;70.19
45793;BME280;31495;42.740;22.908;2023-04-21T00:21:12;92713.94;;;5.86;70.37
45793;BME280;31495;42.740;22.908;2023-04-21T00:22:11;92719.34;;;5.98;70.32
45793;BME280;31495;42.740;22.908;2023-04-21T00:23:13;92732.22;;;6.05;70.26
45793;BME280;31495;42.740;22.908;2023-04-21T00:24:12;92753.22;;;6.15;70.45
45793;BME280;31495;42.740;22.908;2023-04-21T00:25:12;92745.47;;;6.02;70.37
45793;BME280;31495;42.740;22.908;2023-04-21T00:26:13;92735.19;;;6.02;70.39
45793;BME280;31495;42.740;22.908;2023-04-21T00:27:12;92731.44;;;6.11;70.26
45793;BME280;31495;42.740;22.908;2023-04-21T00:28:13;92734.84;;;6.12;70.17
45793;BME280;31495;42.740;22.908;2023-04-21T00:29:13;92750.44;;;6.10;70.12
45793;BME280;31495;42.740;22.908;2023-04-21T00:30:13;92737.75;;;6.02;70.26
45793;BME280;31495;42.740;22.908;2023-04-21T00:31:12;92744.84;;;6.00;70.24
45793;BME280;31495;42.740;22.908;2023-04-21T00:32:11;92732.75;;;5.94;70.97
45793;BME280;31495;42.740;22.908;2023-04-21T00:33:10;92744.84;;;6.00;70.41
45793;BME280;31495;42.740;22.908;2023-04-21T00:34:10;92718.84;;;5.81;70.51
45793;BME280;31495;42.740;22.908;2023-04-21T00:35:10;92745.22;;;5.97;70.79
45793;BME280;31495;42.740;22.908;2023-04-21T00:36:09;92720.66;;;5.81;70.39
45793;BME280;31495;42.740;22.908;2023-04-21T00:37:09;92739.47;;;5.95;70.10
45793;BME280;31495;42.740;22.908;2023-04-21T00:38:08;92706.97;;;5.74;69.95
45793;BME280;31495;42.740;22.908;2023-04-21T00:39:07;92745.84;;;5.99;69.75
45793;BME280;31495;42.740;22.908;2023-04-21T00:40:08;92734.88;;;5.90;69.43
45793;BME280;31495;42.740;22.908;2023-04-21T00:41:08;92731.59;;;5.96;69.39
45793;BME280;31495;42.740;22.908;2023-04-21T00:42:08;92728.59;;;5.93;69.43
45793;BME280;31495;42.740;22.908;2023-04-21T00:43:07;92716.19;;;5.96;69.33
45793;BME280;31495;42.740;22.908;2023-04-21T00:44:08;92728.47;;;6.01;69.61
45793;BME280;31495;42.740;22.908;2023-04-21T00:45:08;92730.66;;;6.11;69.33
45793;BME280;31495;42.740;22.908;2023-04-21T00:46:08;92731.25;;;6.06;69.20
45793;BME280;31495;42.740;22.908;2023-04-21T00:47:07;92737.75;;;6.02;69.49
45793;BME280;31495;42.740;22.908;2023-04-21T00:48:07;92728.59;;;5.93;69.39
45793;BME280;31495;42.740;22.908;2023-04-21T00:49:06;92726.75;;;5.80;69.59
45793;BME280;31495;42.740;22.908;2023-04-21T00:50:06;92741.03;;;5.89;69.62
45793;BME280;31495;42.740;22.908;2023-04-21T00:51:06;92730.28;;;5.79;70.15
45793;BME280;31495;42.740;22.908;2023-04-21T00:52:06;92730.25;;;5.72;70.31
45793;BME280;31495;42.740;22.908;2023-04-21T00:53:06;92710.47;;;5.59;70.32
45793;BME280;31495;42.740;22.908;2023-04-21T00:54:06;92731.13;;;5.86;69.77
45793;BME280;31495;42.740;22.908;2023-04-21T00:55:07;92741.44;;;5.93;69.21
45793;BME280;31495;42.740;22.908;2023-04-21T00:56:08;92722.84;;;5.84;68.73
45793;BME280;31495;42.740;22.908;2023-04-21T00:57:08;92725.41;;;5.84;68.30
45793;BME280;31495;42.740;22.908;2023-04-21T00:58:08;92735.66;;;5.84;68.48
45793;BME280;31495;42.740;22.908;2023-04-21T00:59:08;92725.56;;;5.76;68.59
45793;BME280;31495;42.740;22.908;2023-04-21T01:00:08;92724.72;;;5.68;68.46
45793;BME280;31495;42.740;22.908;2023-04-21T01:01:08;92734.59;;;5.71;68.68
45793;BME280;31495;42.740;22.908;2023-04-21T01:02:07;92741.94;;;5.75;68.76
45793;BME280;31495;42.740;22.908;2023-04-21T01:03:07;92715.16;;;5.56;68.87
45793;BME280;31495;42.740;22.908;2023-04-21T01:04:06;92712.19;;;5.52;68.87
45793;BME280;31495;42.740;22.908;2023-04-21T01:05:08;92744.66;;;5.66;68.59
45793;BME280;31495;42.740;22.908;2023-04-21T01:06:08;92729.44;;;5.65;68.71
45793;BME280;31495;42.740;22.908;2023-04-21T01:07:08;92716.19;;;5.61;68.36
45793;BME280;31495;42.740;22.908;2023-04-21T01:08:08;92736.00;;;5.74;68.51
45793;BME280;31495;42.740;22.908;2023-04-21T01:09:07;92726.13;;;5.71;68.33
45793;BME280;31495;42.740;22.908;2023-04-21T01:10:08;92735.78;;;5.69;68.27
45793;BME280;31495;42.740;22.908;2023-04-21T01:11:11;92737.75;;;5.67;68.59
45793;BME280;31495;42.740;22.908;2023-04-21T01:12:11;92743.59;;;5.54;68.51
45793;BME280;31495;42.740;22.908;2023-04-21T01:13:11;92720.44;;;5.47;68.46
45793;BME280;31495;42.740;22.908;2023-04-21T01:14:11;92721.13;;;5.56;68.61
45793;BME280;31495;42.740;22.908;2023-04-21T01:15:14;92737.72;;;5.60;68.84
45793;BME280;31495;42.740;22.908;2023-04-21T01:16:16;92735.50;;;5.57;69.29
45793;BME280;31495;42.740;22.908;2023-04-21T01:17:15;92734.91;;;5.55;69.15
45793;BME280;31495;42.740;22.908;2023-04-21T01:18:17;92720.03;;;5.44;68.85
45793;BME280;31495;42.740;22.908;2023-04-21T01:19:17;92714.69;;;5.39;68.66
45793;BME280;31495;42.740;22.908;2023-04-21T01:20:18;92714.47;;;5.33;68.84
45793;BME280;31495;42.740;22.908;2023-04-21T01:21:18;92730.16;;;5.52;68.54
45793;BME280;31495;42.740;22.908;2023-04-21T01:22:18;92718.06;;;5.46;68.86
45793;BME280;31495;42.740;22.908;2023-04-21T01:23:18;92722.41;;;5.45;68.56
45793;BME280;31495;42.740;22.908;2023-04-21T01:24:19;92692.06;;;5.21;68.70
45793;BME280;31495;42.740;22.908;2023-04-21T01:25:18;92713.50;;;5.34;68.72
45793;BME280;31495;42.740;22.908;2023-04-21T01:26:21;92722.56;;;5.37;68.65
45793;BME280;31495;42.740;22.908;2023-04-21T01:27:21;92727.47;;;5.32;68.65
45793;BME280;31495;42.740;22.908;2023-04-21T01:28:21;92717.34;;;5.24;68.52
45793;BME280;31495;42.740;22.908;2023-04-21T01:29:22;92720.88;;;5.23;68.71
45793;BME280;31495;42.740;22.908;2023-04-21T01:30:21;92729.47;;;5.37;69.03
45793;BME280;31495;42.740;22.908;2023-04-21T01:31:21;92722.91;;;5.27;69.41
45793;BME280;31495;42.740;22.908;2023-04-21T01:32:24;92728.06;;;5.34;69.33
45793;BME280;31495;42.740;22.908;2023-04-21T01:33:24;92727.66;;;5.30;69.90
45793;BME280;31495;42.740;22.908;2023-04-21T01:34:24;92718.09;;;5.18;70.14
45793;BME280;31495;42.740;22.908;2023-04-21T01:35:23;92705.78;;;5.06;70.32
45793;BME280;31495;42.740;22.908;2023-04-21T01:36:23;92729.91;;;5.12;70.87
45793;BME280;31495;42.740;22.908;2023-04-21T01:37:27;92717.44;;;5.09;70.81
45793;BME280;31495;42.740;22.908;2023-04-21T01:38:27;92728.34;;;5.18;70.57
45793;BME280;31495;42.740;22.908;2023-04-21T01:39:26;92706.91;;;4.97;70.41
45793;BME280;31495;42.740;22.908;2023-04-21T01:40:25;92732.25;;;5.07;70.77
45793;BME280;31495;42.740;22.908;2023-04-21T01:41:24;92720.81;;;5.09;70.69
45793;BME280;31495;42.740;22.908;2023-04-21T01:42:26;92702.06;;;5.09;70.73
45793;BME280;31495;42.740;22.908;2023-04-21T01:43:26;92720.09;;;5.22;70.26
45793;BME280;31495;42.740;22.908;2023-04-21T01:44:25;92721.69;;;5.23;69.62
45793;BME280;31495;42.740;22.908;2023-04-21T01:45:25;92727.91;;;5.07;69.15
45793;BME280;31495;42.740;22.908;2023-04-21T01:46:24;92707.78;;;4.83;69.36
45793;BME280;31495;42.740;22.908;2023-04-21T01:47:24;92724.94;;;4.82;70.11
45793;BME280;31495;42.740;22.908;2023-04-21T01:48:24;92733.09;;;4.92;70.43
45793;BME280;31495;42.740;22.908;2023-04-21T01:49:23;92731.38;;;5.00;70.08
45793;BME280;31495;42.740;22.908;2023-04-21T01:50:22;92725.66;;;4.97;69.60
45793;BME280;31495;42.740;22.908;2023-04-21T01:51:22;92737.25;;;4.93;69.79
45793;BME280;31495;42.740;22.908;2023-04-21T01:52:21;92729.94;;;4.90;69.57
45793;BME280;31495;42.740;22.908;2023-04-21T01:53:21;92728.13;;;4.84;69.26
45793;BME280;31495;42.740;22.908;2023-04-21T01:54:21;92722.44;;;4.89;69.47
45793;BME280;31495;42.740;22.908;2023-04-21T01:55:20;92719.00;;;4.82;69.69
45793;BME280;31495;42.740;22.908;2023-04-21T01:56:20;92717.50;;;4.87;69.39
45793;BME280;31495;42.740;22.908;2023-04-21T01:57:19;92725.59;;;4.91;69.55
45793;BME280;31495;42.740;22.908;2023-04-21T01:58:20;92687.97;;;4.70;69.87
45793;BME280;31495;42.740;22.908;2023-04-21T01:59:19;92720.00;;;4.81;70.38
45793;BME280;31495;42.740;22.908;2023-04-21T02:00:19;92723.03;;;4.91;70.03
45793;BME280;31495;42.740;22.908;2023-04-21T02:01:18;92617.06;;;4.27;69.78
45793;BME280;31495;42.740;22.908;2023-04-21T02:02:18;92686.38;;;4.69;69.85
45793;BME280;31495;42.740;22.908;2023-04-21T02:03:17;92706.19;;;4.82;70.33
45793;BME280;31495;42.740;22.908;2023-04-21T02:04:16;92713.69;;;4.83;70.12
45793;BME280;31495;42.740;22.908;2023-04-21T02:05:16;92702.97;;;4.73;70.31
45793;BME280;31495;42.740;22.908;2023-04-21T02:06:16;92719.44;;;4.85;70.10
45793;BME280;31495;42.740;22.908;2023-04-21T02:07:15;92696.66;;;4.75;69.62
45793;BME280;31495;42.740;22.908;2023-04-21T02:08:15;92722.84;;;4.92;69.52
45793;BME280;31495;42.740;22.908;2023-04-21T02:09:15;92713.09;;;4.81;69.23
45793;BME280;31495;42.740;22.908;2023-04-21T02:10:15;92723.94;;;4.83;69.34
45793;BME280;31495;42.740;22.908;2023-04-21T02:11:15;92707.50;;;4.71;68.98
45793;BME280;31495;42.740;22.908;2023-04-21T02:12:14;92710.84;;;4.71;69.05
45793;BME280;31495;42.740;22.908;2023-04-21T02:13:13;92700.34;;;4.66;69.38
45793;BME280;31495;42.740;22.908;2023-04-21T02:14:13;92711.50;;;4.80;69.36
45793;BME280;31495;42.740;22.908;2023-04-21T02:15:13;92708.53;;;4.76;69.61
45793;BME280;31495;42.740;22.908;2023-04-21T02:16:12;92701.94;;;4.67;69.98
45793;BME280;31495;42.740;22.908;2023-04-21T02:17:12;92711.81;;;4.70;70.37
45793;BME280;31495;42.740;22.908;2023-04-21T02:18:11;92718.22;;;4.81;70.39
45793;BME280;31495;42.740;22.908;2023-04-21T02:19:11;92704.56;;;4.74;70.53
45793;BME280;31495;42.740;22.908;2023-04-21T02:20:11;92715.28;;;4.84;70.07
45793;BME280;31495;42.740;22.908;2023-04-21T02:21:10;92702.25;;;4.79;70.41
45793;BME280;31495;42.740;22.908;2023-04-21T02:22:10;92708.38;;;4.85;70.20
45793;BME280;31495;42.740;22.908;2023-04-21T02:23:10;92700.41;;;4.73;70.62
45793;BME280;31495;42.740;22.908;2023-04-21T02:24:10;92710.72;;;4.79;70.48
45793;BME280;31495;42.740;22.908;2023-04-21T02:25:09;92686.19;;;4.70;70.03
45793;BME280;31495;42.740;22.908;2023-04-21T02:26:09;92692.91;;;4.71;70.28
45793;BME280;31495;42.740;22.908;2023-04-21T02:27:08;92693.50;;;4.73;70.74
45793;BME280;31495;42.740;22.908;2023-04-21T02:28:08;92685.25;;;4.50;69.43
45793;BME280;31495;42.740;22.908;2023-04-21T02:29:08;92699.88;;;4.56;69.52
45793;BME280;31495;42.740;22.908;2023-04-21T02:30:08;92682.44;;;4.45;69.50
45793;BME280;31495;42.740;22.908;2023-04-21T02:31:07;92695.06;;;4.46;69.82
45793;BME280;31495;42.740;22.908;2023-04-21T02:32:07;92685.13;;;4.36;69.57
45793;BME280;31495;42.740;22.908;2023-04-21T02:33:07;92695.47;;;4.50;69.47
45793;BME280;31495;42.740;22.908;2023-04-21T02:34:06;92679.00;;;4.37;69.32
45793;BME280;31495;42.740;22.908;2023-04-21T02:35:06;92680.78;;;4.37;69.42
45793;BME280;31495;42.740;22.908;2023-04-21T02:36:06;92708.53;;;4.55;69.27
45793;BME280;31495;42.740;22.908;2023-04-21T02:37:06;92699.25;;;4.32;69.50
45793;BME280;31495;42.740;22.908;2023-04-21T02:38:05;92699.06;;;4.34;69.59
45793;BME280;31495;42.740;22.908;2023-04-21T02:39:06;92702.06;;;4.37;69.84
45793;BME280;31495;42.740;22.908;2023-04-21T02:40:06;92669.19;;;4.19;69.71
45793;BME280;31495;42.740;22.908;2023-04-21T02:41:06;92713.84;;;4.53;69.81
45793;BME280;31495;42.740;22.908;2023-04-21T02:42:06;92707.41;;;4.42;69.99
45793;BME280;31495;42.740;22.908;2023-04-21T02:43:06;92707.47;;;4.49;70.20
45793;BME280;31495;42.740;22.908;2023-04-21T02:44:06;92714.94;;;4.44;70.19
45793;BME280;31495;42.740;22.908;2023-04-21T02:45:06;92704.44;;;4.39;70.29
45793;BME280;31495;42.740;22.908;2023-04-21T02:46:06;92693.88;;;4.27;70.66
45793;BME280;31495;42.740;22.908;2023-04-21T02:47:06;92719.19;;;4.37;70.90
45793;BME280;31495;42.740;22.908;2023-04-21T02:48:05;92712.53;;;4.42;70.96
45793;BME280;31495;42.740;22.908;2023-04-21T02:49:05;92718.31;;;4.45;70.51
45793;BME280;31495;42.740;22.908;2023-04-21T02:50:05;92676.44;;;4.16;70.44
45793;BME280;31495;42.740;22.908;2023-04-21T02:51:10;92702.06;;;4.37;70.38
45793;BME280;31495;42.740;22.908;2023-04-21T02:52:10;92705.91;;;4.48;69.87
45793;BME280;31495;42.740;22.908;2023-04-21T02:53:09;92700.91;;;4.40;69.52
45793;BME280;31495;42.740;22.908;2023-04-21T02:54:09;92702.88;;;4.38;69.23
45793;BME280;31495;42.740;22.908;2023-04-21T02:55:09;92699.13;;;4.19;69.37
45793;BME280;31495;42.740;22.908;2023-04-21T02:56:09;92700.94;;;4.03;70.06
45793;BME280;31495;42.740;22.908;2023-04-21T02:57:08;92713.25;;;4.15;70.22
45793;BME280;31495;42.740;22.908;2023-04-21T02:58:08;92705.47;;;4.23;69.90
45793;BME280;31495;42.740;22.908;2023-04-21T02:59:08;92706.63;;;4.20;69.92
45793;BME280;31495;42.740;22.908;2023-04-21T03:00:10;92712.72;;;4.19;70.06
45793;BME280;31495;42.740;22.908;2023-04-21T03:01:10;92706.81;;;4.19;70.40
45793;BME280;31495;42.740;22.908;2023-04-21T03:02:10;92718.66;;;4.20;70.65
45793;BME280;31495;42.740;22.908;2023-04-21T03:03:09;92703.00;;;4.15;70.55
45793;BME280;31495;42.740;22.908;2023-04-21T03:04:09;92724.00;;;4.25;70.34
45793;BME280;31495;42.740;22.908;2023-04-21T03:05:09;92726.56;;;4.25;69.95
45793;BME280;31495;42.740;22.908;2023-04-21T03:06:08;92696.72;;;3.96;69.61
45793;BME280;31495;42.740;22.908;2023-04-21T03:07:11;92708.81;;;4.02;70.01
45793;BME280;31495;42.740;22.908;2023-04-21T03:08:12;92720.44;;;4.04;69.84
45793;BME280;31495;42.740;22.908;2023-04-21T03:09:11;92708.00;;;4.01;70.07
45793;BME280;31495;42.740;22.908;2023-04-21T03:10:11;92722.28;;;4.11;70.25
45793;BME280;31495;42.740;22.908;2023-04-21T03:11:11;92696.81;;;3.88;70.54
45793;BME280;31495;42.740;22.908;2023-04-21T03:12:11;92725.56;;;4.04;70.59
45793;BME280;31495;42.740;22.908;2023-04-21T03:13:10;92706.81;;;3.82;71.00
45793;BME280;31495;42.740;22.908;2023-04-21T03:14:10;92710.56;;;3.86;71.01
45793;BME280;31495;42.740;22.908;2023-04-21T03:15:09;92705.72;;;3.92;71.09
45793;BME280;31495;42.740;22.908;2023-04-21T03:16:09;92706.16;;;3.95;70.83
45793;BME280;31495;42.740;22.908;2023-04-21T03:17:10;92725.47;;;3.98;71.02
45793;BME280;31495;42.740;22.908;2023-04-21T03:18:10;92725.47;;;3.98;71.18
45793;BME280;31495;42.740;22.908;2023-04-21T03:19:09;92728.72;;;4.07;70.84
45793;BME280;31495;42.740;22.908;2023-04-21T03:20:08;92678.03;;;3.80;70.82
45793;BME280;31495;42.740;22.908;2023-04-21T03:21:09;92715.06;;;3.99;69.99
45793;BME280;31495;42.740;22.908;2023-04-21T03:22:09;92688.25;;;3.80;70.11
45793;BME280;31495;42.740;22.908;2023-04-21T03:23:09;92719.47;;;4.05;69.64
45793;BME280;31495;42.740;22.908;2023-04-21T03:24:08;92710.28;;;3.96;69.85
45793;BME280;31495;42.740;22.908;2023-04-21T03:25:08;92729.72;;;4.05;69.97
45793;BME280;31495;42.740;22.908;2023-04-21T03:26:07;92725.47;;;3.98;70.12
45793;BME280;31495;42.740;22.908;2023-04-21T03:27:07;92712.59;;;3.91;70.13
45793;BME280;31495;42.740;22.908;2023-04-21T03:28:06;92703.50;;;3.89;70.13
45793;BME280;31495;42.740;22.908;2023-04-21T03:29:06;92725.56;;;4.04;70.00
45793;BME280;31495;42.740;22.908;2023-04-21T03:30:06;92735.97;;;4.03;69.87
45793;BME280;31495;42.740;22.908;2023-04-21T03:31:06;92718.78;;;3.97;69.84
45793;BME280;31495;42.740;22.908;2023-04-21T03:32:05;92716.84;;;3.99;69.58
45793;BME280;31495;42.740;22.908;2023-04-21T03:33:05;92716.84;;;3.99;69.67
45793;BME280;31495;42.740;22.908;2023-04-21T03:34:04;92731.00;;;4.16;70.09
45793;BME280;31495;42.740;22.908;2023-04-21T03:35:04;92716.41;;;3.95;70.24
45793;BME280;31495;42.740;22.908;2023-04-21T03:36:04;92718.25;;;3.86;70.91
45793;BME280;31495;42.740;22.908;2023-04-21T03:37:04;92693.31;;;3.74;70.81
45793;BME280;31495;42.740;22.908;2023-04-21T03:38:04;92733.59;;;4.01;70.75
45793;BME280;31495;42.740;22.908;2023-04-21T03:39:04;92731.22;;;3.85;70.69
45793;BME280;31495;42.740;22.908;2023-04-21T03:40:04;92722.25;;;3.74;70.98
45793;BME280;31495;42.740;22.908;2023-04-21T03:41:04;92721.72;;;3.79;70.94
45793;BME280;31495;42.740;22.908;2023-04-21T03:42:03;92712.97;;;3.73;71.14
45793;BME280;31495;42.740;22.908;2023-04-21T03:43:03;92728.84;;;3.83;71.09
45793;BME280;31495;42.740;22.908;2023-04-21T03:44:02;92699.75;;;3.70;70.87
45793;BME280;31495;42.740;22.908;2023-04-21T03:45:07;92730.00;;;3.96;70.92
45793;BME280;31495;42.740;22.908;2023-04-21T03:46:07;92733.69;;;3.93;70.98
45793;BME280;31495;42.740;22.908;2023-04-21T03:47:06;92727.00;;;3.92;70.85
45793;BME280;31495;42.740;22.908;2023-04-21T03:48:06;92719.06;;;3.87;70.58
45793;BME280;31495;42.740;22.908;2023-04-21T03:49:05;92749.50;;;3.97;70.13
45793;BME280;31495;42.740;22.908;2023-04-21T03:50:05;92732.81;;;4.01;69.93
45793;BME280;31495;42.740;22.908;2023-04-21T03:51:05;92746.28;;;4.10;69.85
45793;BME280;31495;42.740;22.908;2023-04-21T03:52:04;92746.75;;;4.13;69.79
45793;BME280;31495;42.740;22.908;2023-04-21T03:53:04;92742.03;;;4.17;69.53
45793;BME280;31495;42.740;22.908;2023-04-21T03:54:03;92752.66;;;4.14;69.63
45793;BME280;31495;42.740;22.908;2023-04-21T03:55:03;92754.44;;;4.13;70.02
45793;BME280;31495;42.740;22.908;2023-04-21T03:56:03;92719.16;;;3.94;70.52
45793;BME280;31495;42.740;22.908;2023-04-21T03:57:03;92728.81;;;3.98;70.73
45793;BME280;31495;42.740;22.908;2023-04-21T03:58:02;92728.66;;;4.00;70.65
45793;BME280;31495;42.740;22.908;2023-04-21T03:59:02;92742.25;;;4.00;70.40
45793;BME280;31495;42.740;22.908;2023-04-21T04:00:02;92725.06;;;3.79;70.66
45793;BME280;31495;42.740;22.908;2023-04-21T04:01:04;92743.41;;;3.98;70.80
45793;BME280;31495;42.740;22.908;2023-04-21T04:02:05;92733.41;;;4.03;70.42
45793;BME280;31495;42.740;22.908;2023-04-21T04:03:04;92725.94;;;3.86;70.67
45793;BME280;31495;42.740;22.908;2023-04-21T04:04:04;92739.06;;;3.98;70.88
45793;BME280;31495;42.740;22.908;2023-04-21T04:05:04;92739.16;;;4.05;70.86
45793;BME280;31495;42.740;22.908;2023-04-21T04:06:03;92737.13;;;4.00;71.33
45793;BME280;31495;42.740;22.908;2023-04-21T04:07:03;92750.19;;;4.05;71.64
45793;BME280;31495;42.740;22.908;2023-04-21T04:08:03;92745.25;;;4.04;71.65
45793;BME280;31495;42.740;22.908;2023-04-21T04:09:02;92745.06;;;4.05;71.46
45793;BME280;31495;42.740;22.908;2023-04-21T04:10:03;92732.56;;;3.96;71.08
45793;BME280;31495;42.740;22.908;2023-04-21T04:11:03;92739.78;;;4.07;71.04
45793;BME280;31495;42.740;22.908;2023-04-21T04:12:02;92765.63;;;4.12;71.10
45793;BME280;31495;42.740;22.908;2023-04-21T04:13:02;92758.06;;;4.04;71.41
45793;BME280;31495;42.740;22.908;2023-04-21T04:14:01;92761.22;;;4.06;71.64
45793;BME280;31495;42.740;22.908;2023-04-21T04:15:01;92747.56;;;3.99;71.52
45793;BME280;31495;42.740;22.908;2023-04-21T04:16:01;92760.31;;;4.14;71.53
45793;BME280;31495;42.740;22.908;2023-04-21T04:17:00;92732.66;;;3.88;71.38
45793;BME280;31495;42.740;22.908;2023-04-21T04:18:00;92755.06;;;4.00;71.16
45793;BME280;31495;42.740;22.908;2023-04-21T04:19:00;92759.53;;;3.98;71.88
45793;BME280;31495;42.740;22.908;2023-04-21T04:20:00;92758.84;;;4.04;71.62
45793;BME280;31495;42.740;22.908;2023-04-21T04:21:06;92756.63;;;4.01;71.79
45793;BME280;31495;42.740;22.908;2023-04-21T04:22:06;92752.50;;;4.00;71.96
45793;BME280;31495;42.740;22.908;2023-04-21T04:23:06;92762.09;;;3.98;71.43
45793;BME280;31495;42.740;22.908;2023-04-21T04:24:05;92749.50;;;3.97;71.71
45793;BME280;31495;42.740;22.908;2023-04-21T04:25:06;92768.00;;;4.14;71.98
45793;BME280;31495;42.740;22.908;2023-04-21T04:26:07;92749.84;;;4.09;72.02
45793;BME280;31495;42.740;22.908;2023-04-21T04:27:06;92769.84;;;4.20;71.15
45793;BME280;31495;42.740;22.908;2023-04-21T04:28:06;92770.81;;;4.19;71.22
45793;BME280;31495;42.740;22.908;2023-04-21T04:29:05;92776.28;;;4.16;71.25
45793;BME280;31495;42.740;22.908;2023-04-21T04:30:10;92779.94;;;4.21;71.10
45793;BME280;31495;42.740;22.908;2023-04-21T04:31:10;92772.03;;;4.23;71.07
45793;BME280;31495;42.740;22.908;2023-04-21T04:32:11;92763.94;;;4.19;71.28
45793;BME280;31495;42.740;22.908;2023-04-21T04:33:11;92782.38;;;4.30;71.49
45793;BME280;31495;42.740;22.908;2023-04-21T04:34:11;92761.19;;;4.21;70.93
45793;BME280;31495;42.740;22.908;2023-04-21T04:35:10;92756.16;;;4.13;70.98
45793;BME280;31495;42.740;22.908;2023-04-21T04:36:11;92781.50;;;4.22;71.22
45793;BME280;31495;42.740;22.908;2023-04-21T04:37:11;92776.22;;;4.09;71.84
45793;BME280;31495;42.740;22.908;2023-04-21T04:38:11;92760.06;;;4.09;72.15
45793;BME280;31495;42.740;22.908;2023-04-21T04:39:13;92745.06;;;4.05;71.98
45793;BME280;31495;42.740;22.908;2023-04-21T04:40:14;92748.38;;;4.21;72.23
45793;BME280;31495;42.740;22.908;2023-04-21T04:41:14;92777.31;;;4.36;72.26
45793;BME280;31495;42.740;22.908;2023-04-21T04:42:15;92774.41;;;4.39;72.27
45793;BME280;31495;42.740;22.908;2023-04-21T04:43:14;92775.56;;;4.37;72.31
45793;BME280;31495;42.740;22.908;2023-04-21T04:44:14;92752.38;;;4.23;72.58
45793;BME280;31495;42.740;22.908;2023-04-21T04:45:15;92776.09;;;4.32;72.98
45793;BME280;31495;42.740;22.908;2023-04-21T04:46:15;92783.94;;;4.31;73.06
45793;BME280;31495;42.740;22.908;2023-04-21T04:47:15;92775.47;;;4.30;73.34
45793;BME280;31495;42.740;22.908;2023-04-21T04:48:15;92784.03;;;4.37;73.07
45793;BME280;31495;42.740;22.908;2023-04-21T04:49:14;92781.28;;;4.39;73.23
45793;BME280;31495;42.740;22.908;2023-04-21T04:50:15;92794.28;;;4.59;72.87
45793;BME280;31495;42.740;22.908;2023-04-21T04:51:15;92773.56;;;4.54;72.57
45793;BME280;31495;42.740;22.908;2023-04-21T04:52:15;92774.72;;;4.51;72.48
45793;BME280;31495;42.740;22.908;2023-04-21T04:53:14;92780.69;;;4.58;72.14
45793;BME280;31495;42.740;22.908;2023-04-21T04:54:15;92775.22;;;4.62;71.95
45793;BME280;31495;42.740;22.908;2023-04-21T04:55:14;92775.09;;;4.70;72.18
45793;BME280;31495;42.740;22.908;2023-04-21T04:56:13;92796.09;;;4.80;72.22
45793;BME280;31495;42.740;22.908;2023-04-21T04:57:13;92784.56;;;4.69;72.53
45793;BME280;31495;42.740;22.908;2023-04-21T04:58:13;92782.97;;;4.68;72.66
45793;BME280;31495;42.740;22.908;2023-04-21T04:59:12;92753.00;;;4.47;72.90
45793;BME280;31495;42.740;22.908;2023-04-21T05:00:12;92774.38;;;4.54;73.69
45793;BME280;31495;42.740;22.908;2023-04-21T05:01:13;92790.22;;;4.65;73.88
45793;BME280;31495;42.740;22.908;2023-04-21T05:02:13;92763.47;;;4.52;74.17
45793;BME280;31495;42.740;22.908;2023-04-21T05:03:12;92746.47;;;4.45;74.09
45793;BME280;31495;42.740;22.908;2023-04-21T05:04:12;92774.50;;;4.68;73.91
45793;BME280;31495;42.740;22.908;2023-04-21T05:05:15;92783.28;;;4.80;73.84
45793;BME280;31495;42.740;22.908;2023-04-21T05:06:15;92778.31;;;4.78;73.78
45793;BME280;31495;42.740;22.908;2023-04-21T05:07:14;92792.84;;;4.93;73.30
45793;BME280;31495;42.740;22.908;2023-04-21T05:08:14;92781.00;;;4.92;73.08
45793;BME280;31495;42.740;22.908;2023-04-21T05:09:13;92777.91;;;4.96;72.98
45793;BME280;31495;42.740;22.908;2023-04-21T05:10:14;92776.50;;;4.94;73.21
45793;BME280;31495;42.740;22.908;2023-04-21T05:11:14;92758.63;;;4.79;74.24
45793;BME280;31495;42.740;22.908;2023-04-21T05:12:13;92781.44;;;4.95;74.08
45793;BME280;31495;42.740;22.908;2023-04-21T05:13:15;92783.34;;;5.08;74.18
45793;BME280;31495;42.740;22.908;2023-04-21T05:14:15;92800.22;;;5.24;74.09
45793;BME280;31495;42.740;22.908;2023-04-21T05:15:16;92781.19;;;5.12;74.26
45793;BME280;31495;42.740;22.908;2023-04-21T05:16:16;92792.94;;;5.28;74.41
45793;BME280;31495;42.740;22.908;2023-04-21T05:17:15;92764.06;;;5.19;74.28